Time;durP1;ratioP1;P1;durP2;ratioP2;P2;SDS_P1;SDS_P2;PMS_P1;PMS_P2;Temp;Humidity;BMP_temperature;BMP_pressure;BME280_temperature;BME280_humidity;BME280_pressure;Samples;Min_cycle;Max_cycle;Signal;HPM_P1;HPM_P2
2020/12/21 00:02:13;;;;;;;13.62;7.72;;;;;;;-2.23;76.05;101730.12;1718862;82;22353;-77
2020/12/21 00:04:42;;;;;;;13.30;6.97;;;;;;;-2.21;76.12;101736.20;1720003;82;21152;-76
2020/12/21 00:07:10;;;;;;;12.53;7.00;;;;;;;-2.18;76.08;101742.64;1728652;82;21602;-77
2020/12/21 00:09:38;;;;;;;12.65;7.22;;;;;;;-2.19;75.62;101739.59;1707528;83;21164;-75
2020/12/21 00:12:07;;;;;;;14.75;7.33;;;;;;;-2.25;76.00;101737.42;1714356;83;21128;-71
2020/12/21 00:14:35;;;;;;;16.43;6.97;;;;;;;-2.30;75.92;101734.28;1703636;84;21249;-70
2020/12/21 00:17:03;;;;;;;12.00;6.55;;;;;;;-2.31;75.86;101740.64;1705087;84;21600;-75
2020/12/21 00:19:31;;;;;;;13.08;7.25;;;;;;;-2.35;75.97;101736.50;1704508;83;21158;-71
2020/12/21 00:21:59;;;;;;;13.32;6.95;;;;;;;-2.37;75.95;101735.78;1718674;83;21176;-73
2020/12/21 00:24:27;;;;;;;12.85;6.30;;;;;;;-2.38;76.16;101736.78;1703427;82;21174;-73
2020/12/21 00:26:55;;;;;;;11.43;5.95;;;;;;;-2.39;76.27;101735.55;1723711;83;21103;-72
2020/12/21 00:29:24;;;;;;;12.05;6.40;;;;;;;-2.39;76.41;101738.23;1715832;83;21188;-71
2020/12/21 00:31:52;;;;;;;11.50;6.00;;;;;;;-2.40;76.22;101737.89;1721772;82;21250;-70
2020/12/21 00:34:20;;;;;;;12.55;6.40;;;;;;;-2.41;75.75;101728.99;1704367;83;21176;-71
2020/12/21 00:36:50;;;;;;;11.03;5.85;;;;;;;-2.44;75.59;101731.06;1706293;83;21165;-72
2020/12/21 00:39:19;;;;;;;10.67;5.70;;;;;;;-2.49;76.01;101733.28;1682560;83;21220;-75
2020/12/21 00:41:48;;;;;;;11.27;5.90;;;;;;;-2.51;75.99;101725.38;1704611;84;21217;-73
2020/12/21 00:44:17;;;;;;;13.20;6.65;;;;;;;-2.54;75.89;101724.77;1703212;83;21399;-72
2020/12/21 00:46:45;;;;;;;11.00;5.80;;;;;;;-2.58;76.02;101733.58;1701877;84;21219;-74
2020/12/21 00:49:13;;;;;;;10.50;5.72;;;;;;;-2.56;76.46;101731.63;1713437;83;21138;-71
2020/12/21 00:51:43;;;;;;;9.83;5.50;;;;;;;-2.55;76.23;101737.32;1710217;82;21235;-74
2020/12/21 00:54:11;;;;;;;10.80;5.90;;;;;;;-2.53;76.13;101735.39;1725586;82;21647;-75
2020/12/21 00:56:39;;;;;;;9.95;5.55;;;;;;;-2.50;75.90;101745.00;1696174;83;21157;-74
2020/12/21 00:59:07;;;;;;;13.00;5.72;;;;;;;-2.54;75.96;101740.38;1723626;82;21184;-77
2020/12/21 01:01:35;;;;;;;11.97;5.50;;;;;;;-2.63;75.70;101746.48;1717915;82;21361;-74
2020/12/21 01:04:04;;;;;;;11.55;5.85;;;;;;;-2.68;75.80;101747.36;1722060;82;21167;-72
2020/12/21 01:06:33;;;;;;;10.73;5.50;;;;;;;-2.70;75.82;101740.80;1722807;82;21132;-71
2020/12/21 01:09:01;;;;;;;11.28;6.10;;;;;;;-2.67;75.61;101746.39;1694048;83;21182;-74
2020/12/21 01:11:29;;;;;;;12.90;5.85;;;;;;;-2.70;75.38;101747.98;1724101;82;21150;-71
2020/12/21 01:13:57;;;;;;;11.45;5.72;;;;;;;-2.76;75.65;101745.31;1714418;83;21176;-72
2020/12/21 01:16:25;;;;;;;11.08;5.78;;;;;;;-2.75;76.09;101747.02;1726511;82;21174;-73
2020/12/21 01:18:53;;;;;;;10.70;5.60;;;;;;;-2.71;76.04;101750.31;1723054;82;21148;-73
2020/12/21 01:21:29;;;;;;;12.78;5.72;;;;;;;-2.72;75.81;101748.60;1692440;82;21153;-73
2020/12/21 01:23:56;;;;;;;11.00;5.00;;;;;;;-2.71;76.00;101745.78;1711889;82;21679;-72
2020/12/21 01:26:28;;;;;;;11.90;6.20;;;;;;;-2.67;75.97;101751.27;1705794;83;21150;-74
2020/12/21 01:28:55;;;;;;;12.40;5.77;;;;;;;-2.67;75.86;101754.43;1691643;84;21620;-74
2020/12/21 01:31:24;;;;;;;13.50;6.30;;;;;;;-2.68;76.00;101752.71;1688610;84;21520;-72
2020/12/21 01:33:53;;;;;;;11.93;6.23;;;;;;;-2.74;76.00;101752.76;1691408;84;21641;-74
2020/12/21 01:36:21;;;;;;;13.05;6.92;;;;;;;-2.78;76.25;101747.27;1700733;84;21211;-72
2020/12/21 01:38:49;;;;;;;13.72;7.40;;;;;;;-2.78;76.58;101739.23;1693329;84;21180;-73
2020/12/21 01:41:17;;;;;;;12.50;6.20;;;;;;;-2.79;76.72;101748.75;1672298;84;21180;-72
2020/12/21 01:43:45;;;;;;;14.50;7.50;;;;;;;-2.79;76.27;101744.25;1679885;84;21745;-75
2020/12/21 01:46:15;;;;;;;14.85;7.30;;;;;;;-2.83;76.35;101741.92;1700791;83;21738;-72
2020/12/21 01:48:43;;;;;;;13.70;7.10;;;;;;;-2.80;76.30;101739.00;1693532;84;21208;-72
2020/12/21 01:51:26;;;;;;;13.53;6.60;;;;;;;-2.86;76.22;101740.34;1700687;83;21208;-72
2020/12/21 01:53:55;;;;;;;13.40;6.73;;;;;;;-2.90;76.56;101746.95;1693183;84;22502;-74
2020/12/21 01:56:23;;;;;;;12.58;6.95;;;;;;;-2.91;76.90;101745.23;1701023;84;21179;-73
2020/12/21 01:58:51;;;;;;;13.75;6.50;;;;;;;-2.88;76.84;101745.47;1704418;84;21169;-73
2020/12/21 02:01:19;;;;;;;11.25;5.85;;;;;;;-2.87;76.78;101740.00;1706499;83;21279;-73
2020/12/21 02:03:48;;;;;;;13.85;6.78;;;;;;;-2.88;76.55;101747.66;1713560;83;21270;-73
2020/12/21 02:06:17;;;;;;;10.73;5.63;;;;;;;-2.93;76.67;101748.53;1711777;83;21140;-71
2020/12/21 02:08:46;;;;;;;10.67;5.07;;;;;;;-2.92;76.90;101748.05;1711020;83;21164;-72
2020/12/21 02:11:13;;;;;;;9.68;4.85;;;;;;;-2.91;76.39;101747.09;1700921;82;21188;-73
2020/12/21 02:13:43;;;;;;;10.77;4.93;;;;;;;-2.93;76.37;101749.88;1731206;81;21158;-73
2020/12/21 02:16:15;;;;;;;7.37;3.70;;;;;;;-2.92;76.52;101746.71;1728110;81;21173;-71
2020/12/21 02:18:42;;;;;;;7.70;3.77;;;;;;;-2.93;75.74;101755.70;1718411;82;21171;-75
2020/12/21 02:21:10;;;;;;;9.63;4.15;;;;;;;-2.95;75.95;101749.63;1706669;82;21148;-75
2020/12/21 02:23:38;;;;;;;8.23;3.98;;;;;;;-2.94;75.99;101751.35;1705866;83;21187;-73
2020/12/21 02:26:06;;;;;;;8.45;4.33;;;;;;;-2.92;76.04;101749.39;1696081;83;21172;-76
2020/12/21 02:28:34;;;;;;;8.13;4.15;;;;;;;-2.90;76.18;101750.11;1718981;83;22251;-74
2020/12/21 02:31:02;;;;;;;8.38;4.25;;;;;;;-2.89;76.12;101750.00;1715446;83;21204;-72
2020/12/21 02:33:30;;;;;;;7.58;3.50;;;;;;;-2.89;76.03;101755.84;1729488;83;21123;-75
2020/12/21 02:35:58;;;;;;;;;;;;;;;-2.92;76.20;101752.92;1711666;82;21637;-73
2020/12/21 02:38:26;;;;;;;7.78;3.80;;;;;;;-2.93;76.41;101754.38;1698491;84;20233;-73
2020/12/21 02:40:54;;;;;;;11.08;4.42;;;;;;;-2.94;76.43;101759.39;1710543;82;21690;-74
2020/12/21 02:43:22;;;;;;;10.30;4.85;;;;;;;-2.92;76.64;101762.78;1722199;82;21175;-71
2020/12/21 02:45:50;;;;;;;9.37;4.60;;;;;;;-2.93;76.34;101759.73;1665678;85;21159;-72
2020/12/21 02:48:18;;;;;;;9.90;4.75;;;;;;;-2.95;76.68;101767.05;1681573;83;21490;-72
2020/12/21 02:50:46;;;;;;;8.95;4.75;;;;;;;-2.96;76.61;101760.00;1708693;83;21603;-70
2020/12/21 02:53:15;;;;;;;8.93;4.83;;;;;;;-2.97;76.51;101758.29;1710136;83;21220;-72
2020/12/21 02:55:44;;;;;;;11.47;4.77;;;;;;;-2.99;76.46;101760.25;1706173;83;21165;-74
2020/12/21 02:58:12;;;;;;;;;;;;;;;-2.99;76.76;101761.59;1725926;83;21175;-76
2020/12/21 03:00:40;;;;;;;9.83;4.53;;;;;;;-2.99;77.01;101762.45;1705857;83;20330;-72
2020/12/21 03:03:10;;;;;;;9.90;4.73;;;;;;;-3.05;76.66;101770.97;1682745;84;21152;-69
2020/12/21 03:05:38;;;;;;;8.58;4.10;;;;;;;-3.06;76.90;101773.78;1721661;82;21237;-73
2020/12/21 03:08:07;;;;;;;9.40;4.60;;;;;;;-3.05;76.85;101774.12;1701625;84;21177;-73
2020/12/21 03:10:37;;;;;;;9.10;4.40;;;;;;;-3.09;76.77;101764.65;1679916;84;21651;-74
2020/12/21 03:13:05;;;;;;;10.87;5.10;;;;;;;-3.14;76.84;101769.52;1705347;84;21620;-71
2020/12/21 03:15:33;;;;;;;9.60;4.70;;;;;;;-3.15;76.90;101774.50;1706675;84;21179;-73
2020/12/21 03:18:01;;;;;;;10.38;4.80;;;;;;;-3.12;77.04;101778.28;1701799;84;21157;-73
2020/12/21 03:20:29;;;;;;;;;;;;;;;-3.10;76.90;101778.52;1689472;84;21161;-73
2020/12/21 03:22:57;;;;;;;10.40;4.73;;;;;;;-3.15;76.84;101778.52;1694984;83;20255;-72
2020/12/21 03:25:24;;;;;;;10.90;5.22;;;;;;;-3.19;76.92;101781.95;1722973;81;21135;-72
2020/12/21 03:27:52;;;;;;;10.53;4.85;;;;;;;-3.16;77.04;101783.53;1691555;83;21178;-71
2020/12/21 03:30:20;;;;;;;11.68;4.87;;;;;;;-3.14;77.17;101781.58;1687418;84;21152;-70
2020/12/21 03:32:49;;;;;;;10.50;4.73;;;;;;;-3.14;77.05;101784.25;1695803;83;21144;-69
2020/12/21 03:35:19;;;;;;;8.80;4.30;;;;;;;-3.14;76.98;101790.47;1725359;82;21581;-73
2020/12/21 03:37:47;;;;;;;9.50;4.55;;;;;;;-3.14;77.20;101790.47;1723405;83;21135;-73
2020/12/21 03:40:15;;;;;;;;;;;;;;;-3.15;76.73;101790.57;1713068;83;21726;-71
2020/12/21 03:42:43;;;;;;;8.47;3.97;;;;;;;-3.15;76.63;101791.42;1695840;84;20227;-74
2020/12/21 03:45:11;;;;;;;8.45;3.98;;;;;;;-3.14;76.73;101794.96;1723583;82;22814;-69
2020/12/21 03:47:38;;;;;;;8.28;3.70;;;;;;;-3.16;76.52;101794.24;1688463;83;21226;-71
2020/12/21 03:50:07;;;;;;;8.75;4.33;;;;;;;-3.16;76.26;101802.28;1694260;83;21145;-71
2020/12/21 03:52:34;;;;;;;8.98;4.33;;;;;;;-3.15;76.80;101799.94;1696803;84;21204;-74
2020/12/21 03:55:03;;;;;;;10.28;5.03;;;;;;;-3.13;76.36;101802.00;1694202;84;21141;-70
2020/12/21 03:57:31;;;;;;;9.17;4.80;;;;;;;-3.15;76.47;101806.64;1688321;83;21259;-70
2020/12/21 03:59:59;;;;;;;10.40;5.10;;;;;;;-3.15;76.61;101811.52;1713910;82;21165;-75
2020/12/21 04:02:27;;;;;;;9.60;5.10;;;;;;;-3.16;76.47;101810.31;1721699;82;21264;-70
2020/12/21 04:04:54;;;;;;;11.70;5.10;;;;;;;-3.21;76.69;101810.17;1718600;82;21651;-69
2020/12/21 04:07:22;;;;;;;15.08;7.25;;;;;;;-3.26;76.81;101802.98;1722086;82;21130;-71
2020/12/21 04:09:50;;;;;;;11.93;5.53;;;;;;;-3.33;76.56;101805.80;1707922;83;21706;-70
2020/12/21 04:12:18;;;;;;;11.28;5.83;;;;;;;-3.39;76.82;101812.96;1711695;82;21152;-70
2020/12/21 04:14:46;;;;;;;9.65;5.05;;;;;;;-3.43;77.27;101812.85;1723702;83;21291;-70
2020/12/21 04:17:14;;;;;;;11.97;6.15;;;;;;;-3.42;77.57;101803.00;1723191;82;21740;-74
2020/12/21 04:19:42;;;;;;;11.08;5.65;;;;;;;-3.41;77.40;101804.20;1687887;83;21608;-74
2020/12/21 04:22:10;;;;;;;11.80;5.70;;;;;;;-3.43;77.64;101808.84;1677130;84;21220;-70
2020/12/21 04:24:38;;;;;;;12.37;5.90;;;;;;;-3.41;77.59;101811.38;1712995;83;21152;-73
2020/12/21 04:27:05;;;;;;;12.68;6.30;;;;;;;-3.40;77.29;101811.28;1710715;83;21688;-75
2020/12/21 04:29:33;;;;;;;11.50;6.08;;;;;;;-3.40;77.41;101811.28;1683755;84;21176;-74
2020/12/21 04:32:01;;;;;;;12.50;6.45;;;;;;;-3.41;77.57;101814.05;1706504;84;21440;-69
2020/12/21 04:34:29;;;;;;;12.27;6.50;;;;;;;-3.42;77.64;101814.56;1675543;84;21160;-71
2020/12/21 04:36:57;;;;;;;14.73;7.47;;;;;;;-3.45;77.52;101810.78;1691837;83;21185;-70
2020/12/21 04:39:25;;;;;;;33.80;18.87;;;;;;;-3.44;77.77;101817.83;1700373;84;21432;-71
2020/12/21 04:41:57;;;;;;;18.85;9.88;;;;;;;-3.43;77.77;101818.20;1700920;84;21160;-72
2020/12/21 04:44:26;;;;;;;14.87;7.53;;;;;;;-3.43;77.89;101816.01;1703372;82;21129;-70
2020/12/21 04:46:55;;;;;;;13.98;6.75;;;;;;;-3.44;78.06;101819.16;1713127;84;21153;-68
2020/12/21 04:49:23;;;;;;;14.47;6.30;;;;;;;-3.45;78.19;101818.81;1710759;82;21242;-70
2020/12/21 04:51:51;;;;;;;;;;;;;;;-3.45;78.05;101824.17;1715551;83;21181;-73
2020/12/21 04:54:19;;;;;;;14.65;6.83;;;;;;;-3.45;78.23;101818.81;1692622;83;20212;-72
2020/12/21 04:56:47;;;;;;;;;;;;;;;-3.46;78.16;101811.75;1674770;84;21232;-71
2020/12/21 04:59:14;;;;;;;15.98;7.50;;;;;;;-3.46;78.21;101822.94;1673112;84;20200;-74
2020/12/21 05:01:43;;;;;;;17.27;7.73;;;;;;;-3.46;78.26;101823.80;1672529;84;21243;-70
2020/12/21 05:04:16;;;;;;;16.87;9.00;;;;;;;-3.48;78.39;101818.19;1673635;84;21180;-75
2020/12/21 05:06:51;;;;;;;15.37;7.70;;;;;;;-3.49;78.35;101816.00;1700887;84;21732;-71
2020/12/21 05:09:23;;;;;;;17.00;7.63;;;;;;;-3.50;78.39;101816.13;1702478;83;21180;-70
2020/12/21 05:12:07;;;;;;;15.53;7.33;;;;;;;-3.51;78.47;101813.94;1700897;84;21180;-74
2020/12/21 05:14:36;;;;;;;17.53;7.73;;;;;;;-3.50;78.56;101816.98;1722574;82;21152;-73
2020/12/21 05:17:14;;;;;;;17.33;8.17;;;;;;;-3.49;78.40;101817.84;1723161;82;21156;-73
2020/12/21 05:19:44;;;;;;;13.60;6.87;;;;;;;-3.51;78.23;101813.94;1714335;82;21142;-69
2020/12/21 05:28:40;;;;;;;16.87;7.83;;;;;;;-3.66;78.80;101823.16;1830592;77;25225;-76
2020/12/21 05:31:11;;;;;;;17.30;7.87;;;;;;;-3.73;78.99;101824.61;1764500;80;21639;-75
2020/12/21 05:33:43;;;;;;;40.57;17.63;;;;;;;-3.69;78.86;101826.06;1786604;80;21124;-74
2020/12/21 05:36:16;;;;;;;16.70;8.03;;;;;;;-3.68;78.82;101821.58;1770949;80;21183;-72
2020/12/21 05:38:56;;;;;;;16.30;8.20;;;;;;;-3.67;78.90;101826.83;1753705;82;21315;-73
2020/12/21 05:41:24;;;;;;;17.87;8.90;;;;;;;-3.64;78.96;101825.73;1754938;80;21208;-71
2020/12/21 05:43:53;;;;;;;18.45;8.10;;;;;;;-3.64;78.67;101827.90;1754442;82;21140;-70
2020/12/21 05:46:23;;;;;;;21.13;8.60;;;;;;;-3.63;78.37;101824.27;1755505;80;21137;-73
2020/12/21 05:48:55;;;;;;;20.50;10.03;;;;;;;-3.67;78.55;101829.50;1752859;80;21129;-74
2020/12/21 05:51:25;;;;;;;21.73;9.03;;;;;;;-3.73;78.83;101835.31;1755811;81;21121;-71
2020/12/21 05:53:58;;;;;;;21.20;9.83;;;;;;;-3.77;79.12;101826.31;1752740;80;21191;-74
2020/12/21 05:56:27;;;;;;;19.27;9.23;;;;;;;-3.78;78.92;101834.81;1754902;81;21268;-74
2020/12/21 05:58:56;;;;;;;26.43;10.73;;;;;;;-3.73;78.94;101830.44;1730182;80;21592;-73
2020/12/21 06:01:24;;;;;;;21.80;9.55;;;;;;;-3.72;78.74;101834.84;1747174;82;21623;-75
2020/12/21 06:04:02;;;;;;;23.95;9.90;;;;;;;-3.78;78.87;101842.84;1752797;80;21631;-72
2020/12/21 06:06:33;;;;;;;20.07;9.90;;;;;;;-3.78;79.04;101831.28;1754201;82;21194;-74
2020/12/21 06:09:03;;;;;;;19.53;9.83;;;;;;;-3.81;78.94;101839.53;1749745;80;21144;-73
2020/12/21 06:11:32;;;;;;;16.93;8.57;;;;;;;-3.87;79.27;101846.23;1746443;81;21145;-73
2020/12/21 06:14:13;;;;;;;15.80;8.10;;;;;;;-3.89;79.13;101848.14;1754034;80;21156;-74
2020/12/21 06:16:43;;;;;;;17.20;8.07;;;;;;;-3.90;79.00;101847.80;1754383;81;21432;-72
2020/12/21 06:19:14;;;;;;;17.03;8.27;;;;;;;-3.90;78.86;101846.46;1733789;82;21189;-73
2020/12/21 06:21:53;;;;;;;16.57;8.20;;;;;;;-3.88;79.01;101847.19;1753515;81;21247;-74
2020/12/21 06:24:24;;;;;;;16.73;7.58;;;;;;;-3.86;78.48;101845.24;1733906;80;21133;-74
2020/12/21 06:26:52;;;;;;;11.90;6.50;;;;;;;-3.87;78.37;101850.25;1753911;81;21200;-73
2020/12/21 06:29:24;;;;;;;16.43;7.30;;;;;;;-3.88;78.11;101849.86;1750303;80;21145;-76
2020/12/21 06:31:54;;;;;;;15.53;7.10;;;;;;;-3.88;78.41;101855.22;1753010;82;21160;-74
2020/12/21 06:34:32;;;;;;;15.17;7.53;;;;;;;-3.83;78.54;101861.06;1728983;80;21203;-73
2020/12/21 06:37:20;;;;;;;15.27;7.47;;;;;;;-3.80;78.23;101862.17;1749825;82;21187;-73
2020/12/21 06:40:05;;;;;;;14.37;7.50;;;;;;;-3.81;78.01;101855.11;1752294;80;21712;-75
2020/12/21 06:42:33;;;;;;;16.30;7.77;;;;;;;-3.82;78.04;101857.91;1757602;80;21160;-71
2020/12/21 06:45:12;;;;;;;17.95;8.95;;;;;;;-3.82;77.73;101861.45;1755980;80;21168;-74
2020/12/21 06:47:40;;;;;;;18.87;8.70;;;;;;;-3.82;78.22;101866.80;1753575;81;21165;-71
2020/12/21 06:50:09;;;;;;;17.83;8.87;;;;;;;-3.81;77.97;101872.49;1736361;80;21208;-70
2020/12/21 06:52:41;;;;;;;19.35;8.98;;;;;;;-3.86;77.73;101866.16;1753116;82;21199;-73
2020/12/21 06:55:09;;;;;;;19.47;8.27;;;;;;;-3.84;77.85;101870.05;1757170;80;21129;-74
2020/12/21 06:57:36;;;;;;;16.77;8.55;;;;;;;-3.87;77.59;101868.45;1752978;80;21144;-71
2020/12/21 07:00:05;;;;;;;18.43;8.77;;;;;;;-3.87;77.41;101867.63;1756870;80;21129;-73
2020/12/21 07:02:34;;;;;;;18.62;8.23;;;;;;;-3.91;77.13;101870.15;1753145;80;21160;-75
2020/12/21 07:05:08;;;;;;;17.23;8.43;;;;;;;-3.94;77.58;101876.59;1756514;81;21132;-70
2020/12/21 07:07:39;;;;;;;16.37;8.50;;;;;;;-3.96;77.39;101877.19;1737476;80;21164;-73
2020/12/21 07:10:13;;;;;;;18.25;8.53;;;;;;;-4.01;77.52;101887.38;1723288;82;21144;-72
2020/12/21 07:12:43;;;;;;;18.23;9.47;;;;;;;-4.06;77.51;101883.34;1719535;80;21678;-74
2020/12/21 07:15:11;;;;;;;16.27;8.60;;;;;;;-4.09;77.80;101886.23;1668535;83;21191;-72
2020/12/21 07:17:39;;;;;;;16.93;7.57;;;;;;;-4.10;77.79;101881.88;1729184;81;21667;-73
2020/12/21 07:20:08;;;;;;;21.53;9.87;;;;;;;-4.14;77.63;101883.06;1757172;81;21599;-72
2020/12/21 07:22:35;;;;;;;18.82;9.35;;;;;;;-4.15;78.21;101884.05;1733524;82;21157;-71
2020/12/21 07:25:03;;;;;;;18.42;8.88;;;;;;;-4.11;78.00;101880.16;1753665;82;21192;-72
2020/12/21 07:27:32;;;;;;;18.27;9.75;;;;;;;-4.10;77.65;101885.38;1750886;80;21635;-73
2020/12/21 07:30:07;;;;;;;19.70;9.57;;;;;;;-4.08;77.78;101887.95;1756500;80;21164;-72
2020/12/21 07:32:35;;;;;;;20.63;10.13;;;;;;;-4.02;78.23;101894.16;1721814;80;21180;-73
2020/12/21 07:35:05;;;;;;;21.00;9.65;;;;;;;-3.96;77.62;101895.05;1755395;82;21218;-72
2020/12/21 07:37:33;;;;;;;20.50;9.93;;;;;;;-3.95;77.47;101898.94;1754899;82;21199;-75
2020/12/21 07:40:01;;;;;;;19.37;9.10;;;;;;;-3.94;77.34;101898.46;1694300;82;21309;-74
2020/12/21 07:42:30;;;;;;;21.30;10.23;;;;;;;-3.95;77.56;101890.91;1721418;83;21211;-74
2020/12/21 07:44:58;;;;;;;17.60;9.03;;;;;;;-3.94;77.33;101898.46;1720263;80;21216;-73
2020/12/21 07:47:30;;;;;;;19.12;9.50;;;;;;;-3.93;77.81;101901.03;1744998;81;21615;-74
2020/12/21 07:49:59;;;;;;;19.07;9.60;;;;;;;-3.92;77.62;101899.19;1725343;81;21506;-72
2020/12/21 07:52:28;;;;;;;22.60;10.23;;;;;;;-3.89;77.32;101905.17;1756609;80;21184;-75
2020/12/21 07:54:59;;;;;;;24.00;10.45;;;;;;;-3.96;76.96;101907.09;1751137;80;21156;-74
2020/12/21 07:57:31;;;;;;;20.33;9.57;;;;;;;-3.97;77.21;101912.05;1752039;80;21168;-74
2020/12/21 07:59:59;;;;;;;21.20;10.40;;;;;;;-3.98;77.19;101907.69;1743576;80;21192;-76
2020/12/21 08:02:30;;;;;;;24.02;11.03;;;;;;;-3.98;77.24;101907.69;1754334;80;21153;-73
2020/12/21 08:04:58;;;;;;;22.13;9.33;;;;;;;-3.96;77.69;101905.75;1749634;80;21152;-73
2020/12/21 08:07:28;;;;;;;26.20;10.97;;;;;;;-3.96;77.48;101905.75;1693060;84;21268;-75
2020/12/21 08:09:58;;;;;;;26.50;10.83;;;;;;;-4.01;77.39;101912.79;1720303;82;21532;-74
2020/12/21 08:12:32;;;;;;;25.87;11.37;;;;;;;-4.06;77.21;101910.08;1719586;83;21713;-75
2020/12/21 08:15:00;;;;;;;23.40;11.20;;;;;;;-4.15;76.95;101905.44;1709193;82;21368;-73
2020/12/21 08:17:29;;;;;;;;;;;;;;;-4.21;77.49;101907.21;1728358;81;21247;-75
2020/12/21 08:19:59;;;;;;;24.00;11.38;;;;;;;-4.22;78.05;101907.69;1701822;82;20210;-75
2020/12/21 08:22:29;;;;;;;23.87;11.47;;;;;;;-4.20;78.11;101908.93;1672485;82;21204;-75
2020/12/21 08:25:11;;;;;;;;;;;;;;;-4.21;78.29;101904.54;1674640;84;21167;-76
2020/12/21 08:27:51;;;;;;;21.17;10.00;;;;;;;-4.18;77.82;101906.98;1672469;82;20506;-76
2020/12/21 08:30:23;;;;;;;23.90;10.87;;;;;;;-4.23;77.85;101905.14;1672874;84;21564;-78
2020/12/21 08:32:52;;;;;;;23.53;11.37;;;;;;;-4.25;77.91;101906.57;1673051;82;21184;-76
2020/12/21 08:35:28;;;;;;;22.47;11.03;;;;;;;-4.23;77.84;101902.47;1687373;84;21246;-79
2020/12/21 08:38:11;;;;;;;20.03;9.83;;;;;;;-4.20;77.92;101904.92;1683689;83;21143;-79
2020/12/21 08:40:37;;;;;;;24.07;10.90;;;;;;;-4.17;77.83;101896.64;1696470;83;21565;-75
2020/12/21 08:43:05;;;;;;;21.62;10.05;;;;;;;-4.11;77.81;101893.53;1706157;83;21179;-76
2020/12/21 08:45:36;;;;;;;21.80;10.35;;;;;;;-4.08;77.78;101895.98;1707735;83;21189;-77
2020/12/21 08:48:06;;;;;;;21.67;9.27;;;;;;;-4.05;77.72;101893.08;1649669;85;21631;-75
2020/12/21 08:50:34;;;;;;;18.30;8.85;;;;;;;-4.02;77.36;101897.70;1686194;83;21308;-78
2020/12/21 08:53:02;;;;;;;20.17;9.38;;;;;;;-4.07;78.06;101888.31;1704272;83;21165;-77
2020/12/21 08:55:30;;;;;;;25.35;10.10;;;;;;;-4.00;77.67;101873.02;1721018;83;21175;-80
2020/12/21 08:57:58;;;;;;;22.42;9.78;;;;;;;-4.02;77.45;101874.11;1699853;82;21220;-78
2020/12/21 09:00:25;;;;;;;19.98;9.60;;;;;;;-3.94;77.65;101870.37;1675077;84;21160;-73
2020/12/21 09:02:55;;;;;;;20.77;9.83;;;;;;;-3.85;77.61;101872.38;1672712;82;21220;-76
2020/12/21 09:05:23;;;;;;;20.40;9.75;;;;;;;-3.77;77.85;101871.31;1672216;82;21317;-72
2020/12/21 09:07:51;;;;;;;35.63;15.18;;;;;;;-3.71;77.56;101866.81;1696231;82;21580;-72
2020/12/21 09:10:19;;;;;;;;;;;;;;;-3.65;77.78;101859.66;1712272;82;21316;-72
2020/12/21 09:12:47;;;;;;;26.90;10.03;;;;;;;-3.54;77.34;101861.52;1723138;82;20187;-76
2020/12/21 09:15:15;;;;;;;23.15;9.28;;;;;;;-3.49;77.16;101857.48;1711112;82;21180;-74
2020/12/21 09:17:44;;;;;;;22.93;10.10;;;;;;;-3.40;76.98;101862.62;1710251;83;21599;-73
2020/12/21 09:20:12;;;;;;;20.57;9.73;;;;;;;-3.38;76.48;101847.28;1679017;83;21486;-76
2020/12/21 09:22:41;;;;;;;20.82;9.10;;;;;;;-3.37;76.52;101855.69;1705247;82;21597;-73
2020/12/21 09:25:09;;;;;;;25.67;10.23;;;;;;;-3.33;76.61;101861.16;1700178;83;21160;-74
2020/12/21 09:27:37;;;;;;;20.15;9.85;;;;;;;-3.30;76.23;101848.39;1671257;84;21252;-74
2020/12/21 09:30:05;;;;;;;20.77;10.03;;;;;;;-3.31;75.97;101845.34;1691992;83;21235;-72
2020/12/21 09:32:33;;;;;;;26.07;10.58;;;;;;;-3.27;76.27;101841.47;1713156;84;21569;-77
2020/12/21 09:35:01;;;;;;;22.35;11.15;;;;;;;-3.22;76.50;101841.95;1679763;84;21612;-72
2020/12/21 09:37:31;;;;;;;21.93;10.23;;;;;;;-3.24;75.91;101835.84;1734214;82;21857;-72
2020/12/21 09:40:01;;;;;;;24.67;10.03;;;;;;;-3.17;76.22;101839.39;1698435;83;21260;-74
2020/12/21 09:42:30;;;;;;;21.77;10.00;;;;;;;-3.22;75.61;101836.60;1703386;84;21158;-75
2020/12/21 09:44:58;;;;;;;23.07;10.13;;;;;;;-3.22;75.71;101839.76;1702460;83;21208;-76
2020/12/21 09:47:26;;;;;;;22.90;10.50;;;;;;;-3.24;75.98;101830.48;1696056;83;21173;-78
2020/12/21 09:49:54;;;;;;;23.52;9.93;;;;;;;-3.21;76.48;101835.61;1684584;83;21488;-77
2020/12/21 09:52:24;;;;;;;23.25;11.33;;;;;;;-3.18;75.57;101830.97;1678776;83;21766;-77
2020/12/21 09:54:52;;;;;;;23.63;11.57;;;;;;;-3.23;75.78;101833.55;1693725;83;21157;-75
2020/12/21 09:57:20;;;;;;;23.18;11.03;;;;;;;-3.25;75.88;101840.85;1690085;83;21205;-75
2020/12/21 09:59:47;;;;;;;21.52;10.40;;;;;;;-3.24;75.51;101837.69;1698615;84;21160;-73
2020/12/21 10:02:16;;;;;;;22.87;10.70;;;;;;;-3.25;75.84;101836.83;1693415;83;21569;-73
2020/12/21 10:04:45;;;;;;;25.57;10.80;;;;;;;-3.28;75.62;101837.07;1674090;83;21652;-77
2020/12/21 10:07:12;;;;;;;24.80;11.28;;;;;;;-3.25;76.02;101835.50;1677132;83;21441;-77
2020/12/21 10:09:41;;;;;;;28.92;12.55;;;;;;;-3.22;75.82;101846.45;1694441;84;21205;-77
2020/12/21 10:12:09;;;;;;;21.95;10.53;;;;;;;-3.23;75.70;101842.91;1693311;83;21165;-77
2020/12/21 10:14:37;;;;;;;;;;;;;;;-3.25;75.62;101839.52;1680966;83;21200;-76
2020/12/21 10:17:05;;;;;;;;;;;;;;;-3.25;75.43;101839.52;1676644;83;20275;-76
2020/12/21 10:19:33;;;;;;;25.97;12.40;;;;;;;-3.28;75.83;101846.92;1710669;84;20192;-76
2020/12/21 10:22:02;;;;;;;26.30;11.85;;;;;;;-3.33;76.24;101845.95;1708206;83;21715;-76
2020/12/21 10:24:31;;;;;;;26.53;12.87;;;;;;;-3.36;76.20;101846.19;1683831;84;21775;-75
2020/12/21 10:26:59;;;;;;;22.40;11.97;;;;;;;-3.38;76.40;101842.78;1685800;83;21307;-73
2020/12/21 10:29:27;;;;;;;24.15;11.83;;;;;;;-3.42;76.39;101842.67;1743359;82;21592;-74
2020/12/21 10:31:58;;;;;;;25.17;12.75;;;;;;;-3.43;76.50;101846.31;1670559;83;21644;-73
2020/12/21 10:34:26;;;;;;;23.77;11.47;;;;;;;-3.40;76.77;101846.55;1700473;82;21287;-73
2020/12/21 10:36:55;;;;;;;25.17;11.80;;;;;;;-3.38;76.37;101841.45;1728165;82;21179;-73
2020/12/21 10:39:22;;;;;;;26.65;12.33;;;;;;;-3.36;75.92;101838.64;1713656;82;21639;-72
2020/12/21 10:41:50;;;;;;;23.25;11.93;;;;;;;-3.43;75.99;101834.74;1723809;82;21663;-76
2020/12/21 10:44:18;;;;;;;21.48;11.15;;;;;;;-3.43;76.19;101831.59;1727850;82;21691;-76
2020/12/21 10:46:46;;;;;;;24.05;11.78;;;;;;;-3.44;76.31;101825.86;1716406;82;21148;-77
2020/12/21 10:49:16;;;;;;;22.23;11.70;;;;;;;-3.46;76.42;101822.45;1713782;82;21148;-73
2020/12/21 10:51:44;;;;;;;26.20;12.07;;;;;;;-3.47;76.50;101826.60;1727988;82;21438;-76
2020/12/21 10:54:11;;;;;;;25.68;12.78;;;;;;;-3.50;76.55;101830.85;1728268;82;21483;-77
2020/12/21 10:56:39;;;;;;;25.40;11.68;;;;;;;-3.58;76.71;101834.13;1750938;82;21192;-76
2020/12/21 10:59:07;;;;;;;23.42;11.90;;;;;;;-3.54;76.79;101836.09;1724928;82;21627;-76
2020/12/21 11:01:35;;;;;;;29.77;13.68;;;;;;;-3.50;76.75;101836.20;1716992;82;21211;-78
2020/12/21 11:04:03;;;;;;;26.27;13.08;;;;;;;-3.46;76.81;101826.47;1699529;83;21226;-77
2020/12/21 11:06:30;;;;;;;28.50;13.98;;;;;;;-3.45;76.51;101834.88;1707548;82;21274;-75
2020/12/21 11:08:59;;;;;;;27.48;12.20;;;;;;;-3.44;76.37;101833.06;1704555;81;21179;-74
2020/12/21 11:11:27;;;;;;;28.10;12.82;;;;;;;-3.43;76.35;101834.74;1713311;82;21373;-78
2020/12/21 11:13:55;;;;;;;25.12;12.03;;;;;;;-3.47;76.04;101835.48;1747929;82;21212;-76
2020/12/21 11:16:24;;;;;;;29.03;12.67;;;;;;;-3.47;76.22;101825.27;1707820;83;21164;-77
2020/12/21 11:18:52;;;;;;;28.95;12.95;;;;;;;-3.46;76.46;101832.30;1724984;82;21185;-84
2020/12/21 11:21:20;;;;;;;25.25;13.03;;;;;;;-3.47;76.35;101836.83;1651082;85;21783;-77
2020/12/21 11:23:49;;;;;;;25.00;12.20;;;;;;;-3.47;76.71;101833.30;1687707;83;21161;-77
2020/12/21 11:26:19;;;;;;;25.00;12.73;;;;;;;-3.46;76.22;101841.19;1720971;82;21208;-78
2020/12/21 11:28:47;;;;;;;25.90;12.77;;;;;;;-3.50;75.89;101843.75;1692156;82;21287;-77
2020/12/21 11:31:16;;;;;;;28.85;12.68;;;;;;;-3.52;76.12;101837.67;1684512;83;21158;-77
2020/12/21 11:33:44;;;;;;;31.97;13.83;;;;;;;-3.51;76.48;101843.37;1657649;85;21588;-76
2020/12/21 11:36:12;;;;;;;27.73;12.60;;;;;;;-3.47;76.47;101842.66;1718513;82;21192;-76